createdAt,value
2022-09-04T00:02:25.579Z,101361.00
2022-09-04T00:05:06.729Z,101372.41
2022-09-04T00:08:05.027Z,101368.09
2022-09-04T00:10:56.545Z,101375.28
2022-09-04T00:13:27.668Z,101368.91
2022-09-04T00:16:06.504Z,101370.81
2022-09-04T00:18:42.123Z,101372.06
2022-09-04T00:21:14.591Z,101367.97
2022-09-04T00:23:51.840Z,101367.69
2022-09-04T00:26:50.361Z,101372.19
2022-09-04T00:29:26.089Z,101375.81
2022-09-04T00:32:02.110Z,101367.44
2022-09-04T00:34:55.312Z,101375.72
2022-09-04T00:37:27.050Z,101372.00
2022-09-04T00:40:15.615Z,101386.91
2022-09-04T00:42:51.509Z,101381.50
2022-09-04T00:45:44.424Z,101378.91
2022-09-04T00:48:37.479Z,101377.94
2022-09-04T00:51:32.910Z,101385.59
2022-09-04T00:54:17.686Z,101390.47
2022-09-04T00:57:14.054Z,101387.22
2022-09-04T00:59:59.160Z,101389.19
2022-09-04T01:02:58.711Z,101392.06
2022-09-04T01:05:45.540Z,101396.44
2022-09-04T01:08:49.289Z,101399.09
2022-09-04T01:11:47.005Z,101405.88
2022-09-04T01:14:40.262Z,101391.78
2022-09-04T01:17:24.289Z,101397.09
2022-09-04T01:19:59.061Z,101407.47
2022-09-04T01:22:41.459Z,101408.53
2022-09-04T01:25:29.092Z,101417.38
2022-09-04T01:28:16.893Z,101402.78
2022-09-04T01:30:51.168Z,101416.03
2022-09-04T01:33:44.646Z,101421.25
2022-09-04T01:36:20.325Z,101418.28
2022-09-04T01:38:58.954Z,101423.34
2022-09-04T01:41:38.633Z,101419.69
2022-09-04T01:44:08.309Z,101422.63
2022-09-04T01:46:38.003Z,101432.53
2022-09-04T01:49:10.543Z,101435.84
2022-09-04T01:51:54.235Z,101426.03
2022-09-04T01:54:52.371Z,101432.63
2022-09-04T01:57:37.106Z,101434.72
2022-09-04T02:00:17.179Z,101438.50
2022-09-04T02:02:44.187Z,101439.16
2022-09-04T02:05:38.040Z,101437.28
2022-09-04T02:08:29.971Z,101441.06
2022-09-04T02:11:20.020Z,101458.00
2022-09-04T02:14:34.630Z,101458.19
2022-09-04T02:17:01.131Z,101463.72
2022-09-04T02:19:41.302Z,101462.69
2022-09-04T02:22:14.714Z,101453.69
2022-09-04T02:24:41.321Z,101471.31
2022-09-04T02:27:23.317Z,101465.97
2022-09-04T02:29:59.347Z,101461.69
2022-09-04T02:32:32.854Z,101469.09
2022-09-04T02:35:09.838Z,101461.38
2022-09-04T02:37:56.355Z,101461.38
2022-09-04T02:40:25.753Z,101465.53
2022-09-04T02:43:19.451Z,101475.75
2022-09-04T02:46:00.135Z,101474.41
2022-09-04T02:49:09.686Z,101465.47
2022-09-04T02:51:54.064Z,101478.09
2022-09-04T02:54:41.574Z,101485.88
2022-09-04T02:57:33.479Z,101484.03
2022-09-04T03:00:39.463Z,101478.56
2022-09-04T03:03:31.853Z,101488.22
2022-09-04T03:06:33.149Z,101478.94
2022-09-04T03:09:07.867Z,101494.09
2022-09-04T03:11:44.545Z,101491.03
2022-09-04T03:14:34.279Z,101495.00
2022-09-04T03:17:10.524Z,101501.91
2022-09-04T03:19:50.825Z,101507.25
2022-09-04T03:22:48.939Z,101510.50
2022-09-04T03:25:36.799Z,101507.56
2022-09-04T03:28:03.861Z,101498.63
2022-09-04T03:30:35.963Z,101502.91
2022-09-04T03:33:14.861Z,101507.25
2022-09-04T03:36:00.090Z,101502.75
2022-09-04T03:39:04.362Z,101508.28
2022-09-04T03:42:06.225Z,101513.28
2022-09-04T03:44:56.712Z,101511.56
2022-09-04T03:47:47.750Z,101510.72
2022-09-04T03:50:35.643Z,101511.91
2022-09-04T03:53:29.929Z,101517.41
2022-09-04T03:56:02.461Z,101518.31
2022-09-04T03:59:05.720Z,101487.28
2022-09-04T04:01:43.893Z,101522.59
2022-09-04T04:04:28.366Z,101523.81
2022-09-04T04:07:11.897Z,101519.50
2022-09-04T04:10:08.855Z,101513.31
2022-09-04T04:12:49.969Z,101525.34
2022-09-04T04:15:33.796Z,101529.00
2022-09-04T04:18:13.988Z,101528.78
2022-09-04T04:20:47.773Z,101537.25
2022-09-04T04:23:56.907Z,101537.44
2022-09-04T04:26:40.542Z,101534.50
2022-09-04T04:29:19.398Z,101543.13
2022-09-04T04:32:10.588Z,101542.94
2022-09-04T04:34:47.614Z,101548.28
2022-09-04T04:37:24.284Z,101535.88
2022-09-04T04:40:38.491Z,101545.88
2022-09-04T04:43:15.958Z,101548.47
2022-09-04T04:46:25.776Z,101552.91
2022-09-04T04:49:10.805Z,101554.47
2022-09-04T04:52:16.785Z,101553.25
2022-09-04T04:54:52.244Z,101555.16
2022-09-04T04:57:36.791Z,101561.16
2022-09-04T05:00:27.553Z,101563.41
2022-09-04T05:03:19.622Z,101565.81
2022-09-04T05:06:36.146Z,101565.66
2022-09-04T05:09:14.801Z,101562.22
2022-09-04T05:11:53.844Z,101566.16
2022-09-04T05:14:38.824Z,101578.75
2022-09-04T05:17:38.920Z,101581.47
2022-09-04T05:20:21.893Z,101582.31
2022-09-04T05:22:54.547Z,101585.03
2022-09-04T05:25:24.712Z,101590.69
2022-09-04T05:27:57.133Z,101596.56
2022-09-04T05:30:38.150Z,101606.88
2022-09-04T05:33:18.354Z,101597.22
2022-09-04T05:36:00.129Z,101608.91
2022-09-04T05:38:34.874Z,101611.13
2022-09-04T05:41:15.189Z,101622.44
2022-09-04T05:43:53.944Z,101626.91
2022-09-04T05:46:45.299Z,101631.38
2022-09-04T05:49:54.617Z,101631.63
2022-09-04T05:52:33.079Z,101635.72
2022-09-04T05:55:02.378Z,101630.47
2022-09-04T05:57:37.344Z,101629.44
2022-09-04T06:00:12.640Z,101630.00
2022-09-04T06:03:16.520Z,101634.44
2022-09-04T06:06:01.772Z,101645.56
2022-09-04T06:09:02.204Z,101640.59
2022-09-04T06:11:28.722Z,101648.97
2022-09-04T06:14:07.510Z,101638.88
2022-09-04T06:16:53.105Z,101634.72
2022-09-04T06:19:37.750Z,101645.13
2022-09-04T06:22:25.458Z,101643.84
2022-09-04T06:25:27.278Z,101632.44
2022-09-04T06:28:29.673Z,101637.25
2022-09-04T06:30:59.059Z,101647.78
2022-09-04T06:33:55.825Z,101650.75
2022-09-04T06:37:04.421Z,101649.16
2022-09-04T06:40:01.742Z,101641.91
2022-09-04T06:43:09.025Z,101652.97
2022-09-04T06:45:44.166Z,101640.97
2022-09-04T06:48:26.351Z,101637.84
2022-09-04T06:51:18.828Z,101637.59
2022-09-04T06:54:34.712Z,101652.47
2022-09-04T06:57:07.571Z,101648.22
2022-09-04T06:59:57.529Z,101639.03
2022-09-04T07:03:01.170Z,101641.84
2022-09-04T07:05:52.444Z,101643.53
2022-09-04T07:08:37.694Z,101644.38
2022-09-04T07:11:14.751Z,101653.97
2022-09-04T07:14:05.594Z,101644.84
2022-09-04T07:16:41.928Z,101651.81
2022-09-04T07:19:48.641Z,101656.44
2022-09-04T07:22:21.073Z,101663.69
2022-09-04T07:25:02.552Z,101668.00
2022-09-04T07:27:51.155Z,101658.97
2022-09-04T07:30:20.088Z,101656.69
2022-09-04T07:32:54.390Z,101663.56
2022-09-04T07:35:56.510Z,101673.44
2022-09-04T07:38:26.012Z,101679.13
2022-09-04T07:40:55.635Z,101676.31
2022-09-04T07:43:26.716Z,101670.00
2022-09-04T07:46:05.744Z,101677.22
2022-09-04T07:48:44.570Z,101685.31
2022-09-04T07:51:17.820Z,101690.88
2022-09-04T07:54:05.775Z,101691.81
2022-09-04T07:56:35.383Z,101692.56
2022-09-04T07:59:25.232Z,101705.28
2022-09-04T08:02:07.082Z,101699.59
2022-09-04T08:05:11.370Z,101695.00
2022-09-04T08:07:37.893Z,101697.34
2022-09-04T08:10:04.374Z,101706.41
2022-09-04T08:12:45.677Z,101706.41
2022-09-04T08:15:21.674Z,101709.44
2022-09-04T08:18:21.592Z,101716.13
2022-09-04T08:21:11.483Z,101715.00
2022-09-04T08:24:04.350Z,101717.53
2022-09-04T08:26:52.725Z,101725.81
2022-09-04T08:29:31.192Z,101719.84
2022-09-04T08:32:03.581Z,101715.97
2022-09-04T08:34:50.496Z,101725.19
2022-09-04T08:37:28.321Z,101721.22
2022-09-04T08:40:19.737Z,101722.66
2022-09-04T08:43:10.587Z,101727.97
2022-09-04T08:46:06.641Z,101737.94
2022-09-04T08:48:42.489Z,101734.00
2022-09-04T08:51:24.108Z,101734.06
2022-09-04T08:54:20.270Z,101732.75
2022-09-04T08:57:12.004Z,101742.28
2022-09-04T08:59:54.286Z,101727.72
2022-09-04T09:02:35.803Z,101737.22
2022-09-04T09:05:55.767Z,101743.97
2022-09-04T09:08:56.661Z,101744.16
2022-09-04T09:12:09.339Z,101733.66
2022-09-04T09:15:11.955Z,101739.03
2022-09-04T09:17:45.130Z,101734.94
2022-09-04T09:20:27.262Z,101745.53
2022-09-04T09:23:19.556Z,101745.00
2022-09-04T09:25:59.421Z,101735.66
2022-09-04T09:28:35.256Z,101741.09
2022-09-04T09:31:29.630Z,101739.38
2022-09-04T09:34:32.188Z,101733.19
2022-09-04T09:37:31.038Z,101740.53
2022-09-04T09:40:16.114Z,101737.41
2022-09-04T09:43:01.178Z,101739.41
2022-09-04T09:45:55.673Z,101743.31
2022-09-04T09:48:46.617Z,101741.63
2022-09-04T09:51:56.939Z,101746.06
2022-09-04T09:54:37.971Z,101744.41
2022-09-04T09:57:44.458Z,101746.91
2022-09-04T10:00:15.415Z,101735.31
2022-09-04T10:03:11.288Z,101739.03
2022-09-04T10:05:56.094Z,101732.22
2022-09-04T10:08:35.713Z,101745.78
2022-09-04T10:11:33.509Z,101730.50
2022-09-04T10:14:15.312Z,101731.00
2022-09-04T10:16:58.310Z,101733.91
2022-09-04T10:20:08.602Z,101715.53
2022-09-04T10:23:09.318Z,101732.38
2022-09-04T10:25:38.877Z,101732.91
2022-09-04T10:28:32.820Z,101735.81
2022-09-04T10:31:17.907Z,101733.09
2022-09-04T10:34:24.180Z,101732.81
2022-09-04T10:37:17.589Z,101735.66
2022-09-04T10:40:21.137Z,101735.38
2022-09-04T10:43:09.670Z,101741.69
2022-09-04T10:45:46.889Z,101734.31
2022-09-04T10:48:40.736Z,101739.63
2022-09-04T10:51:22.330Z,101739.91
2022-09-04T10:53:58.222Z,101739.03
2022-09-04T10:56:35.370Z,101742.97
2022-09-04T10:59:23.294Z,101741.84
2022-09-04T11:02:12.300Z,101733.09
2022-09-04T11:05:07.940Z,101734.22
2022-09-04T11:08:06.951Z,101728.28
2022-09-04T11:10:53.151Z,101722.91
2022-09-04T11:14:07.857Z,101736.75
2022-09-04T11:16:50.609Z,101729.72
2022-09-04T11:19:54.920Z,101726.84
2022-09-04T11:22:46.113Z,101727.69
2022-09-04T11:25:52.132Z,101728.47
2022-09-04T11:28:47.355Z,101731.16
2022-09-04T11:31:35.061Z,101735.06
2022-09-04T11:34:49.079Z,101731.00
2022-09-04T11:37:34.101Z,101730.47
2022-09-04T11:40:19.048Z,101734.41
2022-09-04T11:43:15.391Z,101736.19
2022-09-04T11:46:29.228Z,101727.00
2022-09-04T11:49:40.761Z,101729.69
2022-09-04T11:52:14.851Z,101735.09
2022-09-04T11:55:14.308Z,101732.75
2022-09-04T11:58:18.797Z,101728.78
2022-09-04T12:01:04.082Z,101736.16
2022-09-04T12:04:14.859Z,101737.56
2022-09-04T12:07:00.054Z,101738.16
2022-09-04T12:09:40.937Z,101733.06
2022-09-04T12:12:11.536Z,101735.25
2022-09-04T12:15:08.852Z,101741.44
2022-09-04T12:17:57.447Z,101743.44
2022-09-04T12:20:51.262Z,101738.03
2022-09-04T12:24:05.765Z,101743.75
2022-09-04T12:27:03.220Z,101749.50
2022-09-04T12:29:51.477Z,101752.41
2022-09-04T12:32:50.231Z,101748.44
2022-09-04T12:35:45.527Z,101753.53
2022-09-04T12:38:37.608Z,101756.09
2022-09-04T12:41:16.640Z,101735.72
2022-09-04T12:44:08.676Z,101751.56
2022-09-04T12:47:00.588Z,101756.38
2022-09-04T12:49:33.136Z,101755.50
2022-09-04T12:52:23.209Z,101744.78
2022-09-04T12:55:04.913Z,101757.22
2022-09-04T12:57:56.473Z,101749.00
2022-09-04T13:00:26.316Z,101747.03
2022-09-04T13:03:38.225Z,101745.06
2022-09-04T13:06:10.632Z,101752.69
2022-09-04T13:09:01.740Z,101753.25
2022-09-04T13:11:50.382Z,101769.94
2022-09-04T13:14:16.892Z,101762.31
2022-09-04T13:17:05.224Z,101760.88
2022-09-04T13:19:49.607Z,101762.00
2022-09-04T13:22:22.337Z,101762.03
2022-09-04T13:25:09.626Z,101767.94
2022-09-04T13:27:58.400Z,101759.19
2022-09-04T13:30:28.365Z,101752.41
2022-09-04T13:33:40.033Z,101761.75
2022-09-04T13:36:28.192Z,101763.16
2022-09-04T13:39:16.507Z,101761.44
2022-09-04T13:41:46.587Z,101765.97
2022-09-04T13:44:42.395Z,101759.19
2022-09-04T13:47:22.949Z,101745.84
2022-09-04T13:50:08.442Z,101761.09
2022-09-04T13:52:53.472Z,101761.41
2022-09-04T13:55:24.938Z,101757.44
2022-09-04T13:57:59.543Z,101752.59
2022-09-04T14:00:30.228Z,101757.97
2022-09-04T14:03:03.721Z,101750.66
2022-09-04T14:05:33.112Z,101756.88
2022-09-04T14:08:04.292Z,101751.78
2022-09-04T14:11:05.140Z,101754.03
2022-09-04T14:13:51.991Z,101760.25
2022-09-04T14:16:19.583Z,101752.63
2022-09-04T14:19:22.270Z,101754.28
2022-09-04T14:22:14.979Z,101749.72
2022-09-04T14:25:00.186Z,101753.41
2022-09-04T14:27:48.498Z,101758.97
2022-09-04T14:30:23.156Z,101756.69
2022-09-04T14:33:08.871Z,101755.22
2022-09-04T14:35:59.891Z,101749.28
2022-09-04T14:38:50.105Z,101763.94
2022-09-04T14:42:12.087Z,101766.75
2022-09-04T14:45:09.532Z,101763.38
2022-09-04T14:48:03.560Z,101759.75
2022-09-04T14:50:36.264Z,101755.50
2022-09-04T14:53:08.712Z,101752.66
2022-09-04T14:55:41.037Z,101760.00
2022-09-04T14:58:20.150Z,101762.47
2022-09-04T15:00:54.174Z,101766.44
2022-09-04T15:03:31.854Z,101759.38
2022-09-04T15:06:12.438Z,101763.38
2022-09-04T15:08:40.833Z,101761.09
2022-09-04T15:11:31.679Z,101756.91
2022-09-04T15:14:24.389Z,101669.13
2022-09-04T15:16:55.795Z,101751.53
2022-09-04T15:19:37.284Z,101754.34
2022-09-04T15:22:16.899Z,101753.22
2022-09-04T15:24:52.853Z,101754.91
2022-09-04T15:27:36.598Z,101743.25
2022-09-04T15:30:11.395Z,101758.78
2022-09-04T15:32:42.718Z,101746.03
2022-09-04T15:35:32.843Z,101753.97
2022-09-04T15:38:24.842Z,101753.97
2022-09-04T15:41:17.730Z,101744.84
2022-09-04T15:43:51.343Z,101751.34
2022-09-04T15:46:27.040Z,101746.22
2022-09-04T15:49:35.283Z,101749.59
2022-09-04T15:52:26.138Z,101752.38
2022-09-04T15:55:02.941Z,101762.16
2022-09-04T15:57:56.079Z,101756.66
2022-09-04T16:00:26.443Z,101751.44
2022-09-04T16:03:16.597Z,101756.47
2022-09-04T16:05:59.248Z,101739.44
2022-09-04T16:08:44.486Z,101752.03
2022-09-04T16:11:23.120Z,101757.84
2022-09-04T16:13:49.692Z,101761.25
2022-09-04T16:16:28.326Z,101755.69
2022-09-04T16:19:14.281Z,101743.66
2022-09-04T16:21:46.661Z,101758.78
2022-09-04T16:24:24.634Z,101747.44
2022-09-04T16:26:54.115Z,101745.75
2022-09-04T16:29:30.378Z,101746.25
2022-09-04T16:31:58.934Z,101741.16
2022-09-04T16:34:28.694Z,101742.25
2022-09-04T16:37:05.457Z,101734.84
2022-09-04T16:39:49.837Z,101730.81
2022-09-04T16:42:28.605Z,101747.19
2022-09-04T16:45:03.845Z,101738.06
2022-09-04T16:47:41.330Z,101751.81
2022-09-04T16:50:13.397Z,101740.47
2022-09-04T16:53:13.096Z,101745.59
2022-09-04T16:55:49.527Z,101733.91
2022-09-04T16:58:56.778Z,101739.53
2022-09-04T17:01:32.765Z,101749.00
2022-09-04T17:04:28.620Z,101745.19
2022-09-04T17:07:07.857Z,101750.38
2022-09-04T17:09:38.571Z,101746.38
2022-09-04T17:12:18.718Z,101742.09
2022-09-04T17:15:08.286Z,101739.22
2022-09-04T17:17:41.047Z,101736.34
2022-09-04T17:20:09.741Z,101742.47
2022-09-04T17:29:01.921Z,101742.06
2022-09-04T17:29:16.026Z,101751.16
2022-09-04T17:29:36.928Z,101746.38
2022-09-04T17:33:59.839Z,101746.47
2022-09-04T17:40:31.886Z,101753.09
2022-09-04T17:40:48.982Z,101747.09
2022-09-04T17:41:55.879Z,101752.16
2022-09-04T17:44:47.182Z,101751.81
2022-09-04T17:47:38.032Z,101763.06
2022-09-04T17:50:12.561Z,101754.06
2022-09-04T17:53:01.642Z,101766.16
2022-09-04T17:55:38.858Z,101753.00
2022-09-04T17:58:40.298Z,101765.28
2022-09-04T18:01:19.059Z,101768.59
2022-09-04T18:04:12.118Z,101765.41
2022-09-04T18:06:51.479Z,101772.56
2022-09-04T18:09:32.062Z,101769.34
2022-09-04T18:12:13.933Z,101779.78
2022-09-04T18:15:27.544Z,101779.97
2022-09-04T18:18:00.681Z,101779.72
2022-09-04T18:20:42.463Z,101787.44
2022-09-04T18:23:50.945Z,101792.97
2022-09-04T18:26:48.007Z,101791.41
2022-09-04T18:30:34.042Z,101801.03
2022-09-04T18:37:12.372Z,101793.41
2022-09-04T18:37:26.903Z,101808.41
2022-09-04T18:38:41.778Z,101805.13
2022-09-04T18:50:31.844Z,101800.34
2022-09-04T18:50:51.444Z,101820.72
2022-09-04T18:50:53.165Z,101810.31
2022-09-04T18:51:20.723Z,101818.94
2022-09-04T18:53:53.687Z,101822.66
2022-09-04T18:56:30.843Z,101823.09
2022-09-04T18:59:02.432Z,101815.81
2022-09-04T19:01:39.809Z,101809.00
2022-09-04T19:04:19.189Z,101822.56
2022-09-04T19:07:06.722Z,101823.44
2022-09-04T19:10:18.491Z,101823.53
2022-09-04T19:12:56.641Z,101815.63
2022-09-04T19:15:27.393Z,101822.72
2022-09-04T19:18:21.917Z,101833.28
2022-09-04T19:20:52.999Z,101834.59
2022-09-04T19:23:32.446Z,101834.38
2022-09-04T19:26:07.304Z,101832.91
2022-09-04T19:28:52.455Z,101843.22
2022-09-04T19:31:38.419Z,101846.66
2022-09-04T19:34:14.502Z,101852.03
2022-09-04T19:36:49.593Z,101850.78
2022-09-04T19:46:05.150Z,101845.19
2022-09-04T19:46:08.898Z,101837.44
2022-09-04T19:46:18.623Z,101847.72
2022-09-04T19:49:46.486Z,101854.38
2022-09-04T19:53:24.371Z,101845.78
2022-09-04T19:55:24.672Z,101856.91
2022-09-04T19:58:02.760Z,101854.97
2022-09-04T20:00:42.475Z,101850.47
2022-09-04T20:03:29.836Z,101856.03
2022-09-04T20:06:20.255Z,101868.22
2022-09-04T20:08:53.389Z,101855.97
2022-09-04T20:11:35.907Z,101858.47
2022-09-04T20:14:16.051Z,101871.53
2022-09-04T20:17:13.442Z,101866.78
2022-09-04T20:19:48.270Z,101861.00
2022-09-04T20:22:46.254Z,101862.47
2022-09-04T20:25:24.344Z,101867.16
2022-09-04T20:27:56.924Z,101864.09
2022-09-04T20:30:25.358Z,101867.28
2022-09-04T20:33:02.764Z,101858.28
2022-09-04T20:35:47.512Z,101875.13
2022-09-04T20:38:30.433Z,101870.16
2022-09-04T20:41:35.552Z,101874.44
2022-09-04T20:44:28.410Z,101877.16
2022-09-04T20:52:49.921Z,101881.22
2022-09-04T20:52:51.599Z,101873.66
2022-09-04T20:53:46.781Z,101871.22
2022-09-04T21:01:45.865Z,101878.03
2022-09-04T21:03:17.612Z,101877.28
2022-09-04T21:03:21.363Z,101873.50
2022-09-04T21:06:07.320Z,101878.47
2022-09-04T21:08:54.938Z,101880.09
2022-09-04T21:11:40.605Z,101876.38
2022-09-04T21:14:44.919Z,101879.09
2022-09-04T21:17:35.634Z,101877.56
2022-09-04T21:20:20.878Z,101876.91
2022-09-04T21:22:50.216Z,101878.38
2022-09-04T21:25:35.220Z,101880.66
2022-09-04T21:28:19.731Z,101872.78
2022-09-04T21:31:08.861Z,101880.56
2022-09-04T21:33:53.976Z,101877.72
2022-09-04T21:36:30.043Z,101873.84
2022-09-04T21:39:21.424Z,101869.28
2022-09-04T21:42:32.853Z,101869.59
2022-09-04T21:45:17.949Z,101876.09
2022-09-04T21:48:06.029Z,101879.66
2022-09-04T21:51:23.328Z,101862.19
2022-09-04T21:55:29.854Z,101880.34
2022-09-04T22:02:26.173Z,101888.75
2022-09-04T22:02:42.420Z,101866.09
2022-09-04T22:03:35.918Z,101890.13
2022-09-04T22:08:10.654Z,101897.25
2022-09-04T22:13:32.171Z,101893.16
2022-09-04T22:13:41.886Z,101890.97
2022-09-04T22:15:52.327Z,101897.44
2022-09-04T22:18:32.153Z,101895.53
2022-09-04T22:21:04.553Z,101891.81
2022-09-04T22:24:08.779Z,101897.91
2022-09-04T22:26:53.784Z,101905.75
2022-09-04T22:29:50.047Z,101898.84
2022-09-04T22:32:25.889Z,101896.97
2022-09-04T22:35:17.417Z,101897.53
2022-09-04T22:38:05.333Z,101905.53
2022-09-04T22:40:55.902Z,101913.34
2022-09-04T22:43:29.463Z,101911.81
2022-09-04T22:46:37.034Z,101913.06
2022-09-04T22:49:34.829Z,101902.72
2022-09-04T22:52:42.927Z,101912.09
2022-09-04T22:56:05.272Z,101908.03
2022-09-04T22:59:25.613Z,101916.78
2022-09-04T23:02:13.644Z,101921.66
2022-09-04T23:05:14.758Z,101919.91
2022-09-04T23:11:28.693Z,101910.59
2022-09-04T23:13:52.627Z,101915.59
2022-09-04T23:14:18.949Z,101917.47
2022-09-04T23:16:53.590Z,101905.06
2022-09-04T23:22:29.448Z,101907.47
2022-09-04T23:26:46.818Z,101909.06
2022-09-04T23:26:50.183Z,101908.56
2022-09-04T23:29:21.389Z,101901.00
2022-09-04T23:32:22.512Z,101904.50
2022-09-04T23:35:14.311Z,101909.41
2022-09-04T23:38:09.844Z,101903.25
2022-09-04T23:40:55.648Z,101898.09
2022-09-04T23:43:46.435Z,101905.03
2022-09-04T23:46:38.775Z,101902.63
2022-09-04T23:49:25.577Z,101903.72
2022-09-04T23:52:03.283Z,101881.66
2022-09-04T23:54:45.930Z,101897.41
2022-09-04T23:57:26.612Z,101895.69
